createdAt,value
2019-01-05T00:01:24.117Z,16.32
2019-01-05T00:04:25.341Z,14.07
2019-01-05T00:07:14.559Z,17.20
2019-01-05T00:10:07.006Z,22.48
2019-01-05T00:13:05.198Z,16.57
2019-01-05T00:16:10.008Z,15.43
2019-01-05T00:18:56.042Z,13.48
2019-01-05T00:21:52.440Z,19.02
2019-01-05T00:24:44.911Z,24.75
2019-01-05T00:27:47.537Z,18.20
2019-01-05T00:30:35.514Z,22.87
2019-01-05T00:33:31.011Z,14.85
2019-01-05T00:36:27.368Z,16.73
2019-01-05T00:39:19.704Z,24.85
2019-01-05T00:42:12.101Z,8.38
2019-01-05T00:44:59.970Z,15.28
2019-01-05T00:47:49.786Z,15.80
2019-01-05T00:50:55.521Z,24.45
2019-01-05T00:53:50.934Z,19.90
2019-01-05T00:56:43.906Z,14.68
2019-01-05T00:59:43.210Z,12.13
2019-01-05T01:02:35.487Z,11.97
2019-01-05T01:05:36.912Z,19.15
2019-01-05T01:08:29.454Z,25.68
2019-01-05T01:11:19.232Z,12.85
2019-01-05T01:14:11.199Z,12.68
2019-01-05T01:17:15.706Z,13.22
2019-01-05T01:20:11.081Z,19.60
2019-01-05T01:23:01.335Z,10.78
2019-01-05T01:25:55.660Z,20.55
2019-01-05T01:28:43.835Z,20.15
2019-01-05T01:31:31.429Z,20.15
2019-01-05T01:34:27.700Z,17.30
2019-01-05T01:37:13.760Z,11.48
2019-01-05T01:40:03.904Z,15.23
2019-01-05T01:42:51.663Z,22.13
2019-01-05T01:45:42.691Z,10.78
2019-01-05T01:48:32.996Z,11.48
2019-01-05T01:51:21.766Z,17.50
2019-01-05T01:54:20.826Z,19.52
2019-01-05T01:57:03.782Z,20.92
2019-01-05T02:00:22.960Z,19.35
2019-01-05T02:03:17.794Z,32.60
2019-01-05T02:06:05.589Z,19.05
2019-01-05T02:09:04.960Z,24.87
2019-01-05T02:11:55.577Z,20.82
2019-01-05T02:14:48.947Z,29.52
2019-01-05T02:18:34.002Z,18.98
2019-01-05T02:21:58.787Z,31.10
2019-01-05T02:25:26.971Z,20.32
2019-01-05T02:29:20.673Z,19.70
2019-01-05T02:32:41.425Z,25.17
2019-01-05T02:36:26.611Z,30.10
2019-01-05T02:39:55.437Z,25.12
2019-01-05T02:43:15.011Z,27.37
2019-01-05T02:47:10.130Z,20.45
2019-01-05T02:51:03.190Z,27.13
2019-01-05T02:54:51.378Z,21.40
2019-01-05T02:58:36.778Z,32.78
2019-01-05T03:02:24.916Z,16.17
2019-01-05T03:05:58.565Z,13.40
2019-01-05T03:09:17.715Z,25.12
2019-01-05T03:12:45.588Z,13.28
2019-01-05T03:16:10.086Z,22.10
2019-01-05T03:19:39.879Z,12.45
2019-01-05T03:23:16.738Z,8.28
2019-01-05T03:26:46.620Z,13.28
2019-01-05T03:30:07.257Z,9.15
2019-01-05T03:33:21.518Z,8.68
2019-01-05T03:36:51.657Z,8.70
2019-01-05T03:40:26.543Z,7.53
2019-01-05T03:43:49.425Z,7.55
2019-01-05T03:47:25.191Z,5.30
2019-01-05T03:50:58.253Z,7.47
2019-01-05T03:54:41.359Z,15.08
2019-01-05T03:58:19.558Z,8.73
2019-01-05T04:01:39.306Z,8.63
2019-01-05T04:05:20.378Z,10.63
2019-01-05T04:08:54.140Z,11.53
2019-01-05T04:12:57.626Z,9.25
2019-01-05T04:16:32.713Z,11.75
2019-01-05T04:20:08.956Z,11.45
2019-01-05T04:23:16.718Z,11.33
2019-01-05T04:27:02.356Z,2.65
2019-01-05T04:30:33.092Z,11.70
2019-01-05T04:33:38.166Z,15.35
2019-01-05T04:37:28.155Z,18.80
2019-01-05T04:40:58.819Z,13.45
2019-01-05T04:44:22.080Z,23.60
2019-01-05T04:47:56.868Z,23.38
2019-01-05T04:51:16.860Z,15.18
2019-01-05T04:54:36.221Z,9.35
2019-01-05T04:57:55.106Z,23.15
2019-01-05T05:01:37.657Z,18.98
2019-01-05T05:05:10.230Z,18.73
2019-01-05T05:09:01.929Z,16.75
2019-01-05T05:12:35.112Z,29.23
2019-01-05T05:16:06.097Z,16.42
2019-01-05T05:19:18.921Z,13.93
2019-01-05T05:22:44.323Z,20.08
2019-01-05T05:26:10.925Z,19.27
2019-01-05T05:29:47.677Z,29.77
2019-01-05T05:33:00.427Z,15.90
2019-01-05T05:36:48.003Z,30.15
2019-01-05T05:40:32.236Z,9.28
2019-01-05T05:43:53.118Z,17.65
2019-01-05T05:47:16.384Z,17.82
2019-01-05T05:50:58.881Z,40.00
2019-01-05T05:54:53.191Z,18.55
2019-01-05T05:58:16.575Z,23.45
2019-01-05T06:01:59.674Z,21.63
2019-01-05T06:05:37.289Z,16.32
2019-01-05T06:09:07.573Z,18.27
2019-01-05T06:12:15.244Z,20.60
2019-01-05T06:15:38.471Z,27.90
2019-01-05T06:19:07.058Z,26.53
2019-01-05T06:22:51.417Z,23.30
2019-01-05T06:26:39.273Z,15.00
2019-01-05T06:30:25.428Z,20.20
2019-01-05T06:33:57.239Z,28.90
2019-01-05T06:37:21.192Z,34.60
2019-01-05T06:40:52.070Z,25.70
2019-01-05T06:44:23.627Z,17.50
2019-01-05T06:48:05.994Z,34.70
2019-01-05T06:51:31.379Z,17.87
2019-01-05T06:55:27.411Z,20.62
2019-01-05T06:59:31.162Z,30.10
2019-01-05T07:02:57.917Z,28.83
2019-01-05T07:06:37.720Z,25.50
2019-01-05T07:10:08.920Z,19.57
2019-01-05T07:13:43.533Z,33.08
2019-01-05T07:17:30.149Z,35.45
2019-01-05T07:21:06.756Z,23.83
2019-01-05T07:24:39.283Z,27.07
2019-01-05T07:28:01.679Z,31.57
2019-01-05T07:31:54.158Z,24.63
2019-01-05T07:35:36.062Z,17.20
2019-01-05T07:39:03.649Z,20.23
2019-01-05T07:42:29.458Z,14.50
2019-01-05T07:45:42.410Z,32.40
2019-01-05T07:49:27.469Z,15.38
2019-01-05T07:52:44.212Z,19.90
2019-01-05T07:56:39.331Z,25.55
2019-01-05T08:00:12.139Z,28.98
2019-01-05T08:03:57.710Z,20.48
2019-01-05T08:07:33.902Z,20.27
2019-01-05T08:11:06.334Z,18.00
2019-01-05T08:14:58.334Z,19.10
2019-01-05T08:18:32.287Z,16.35
2019-01-05T08:22:19.657Z,17.80
2019-01-05T08:26:00.578Z,23.38
2019-01-05T08:29:25.147Z,21.93
2019-01-05T08:32:49.494Z,26.02
2019-01-05T08:36:31.565Z,28.27
2019-01-05T08:39:58.794Z,25.37
2019-01-05T08:43:45.874Z,31.37
2019-01-05T08:47:19.800Z,33.95
2019-01-05T08:50:39.812Z,19.87
2019-01-05T08:54:21.782Z,16.67
2019-01-05T08:57:53.404Z,24.15
2019-01-05T09:01:15.545Z,15.03
2019-01-05T09:04:52.638Z,12.60
2019-01-05T09:08:33.389Z,15.10
2019-01-05T09:11:44.755Z,22.67
2019-01-05T09:15:28.928Z,16.65
2019-01-05T09:19:07.224Z,16.27
2019-01-05T09:22:47.923Z,24.45
2019-01-05T09:26:34.234Z,18.35
2019-01-05T09:30:17.336Z,21.97
2019-01-05T09:33:48.002Z,20.20
2019-01-05T09:37:12.540Z,25.37
2019-01-05T09:40:46.283Z,16.47
2019-01-05T09:44:43.635Z,25.35
2019-01-05T09:48:21.315Z,27.25
2019-01-05T09:52:13.860Z,31.57
2019-01-05T09:55:45.425Z,15.43
2019-01-05T09:59:12.896Z,22.13
2019-01-05T10:02:44.999Z,27.17
2019-01-05T10:06:31.609Z,20.13
2019-01-05T10:09:58.232Z,19.80
2019-01-05T10:13:26.692Z,23.60
2019-01-05T10:17:17.108Z,26.82
2019-01-05T10:20:45.697Z,15.28
2019-01-05T10:24:06.425Z,15.23
2019-01-05T10:27:19.573Z,14.80
2019-01-05T10:31:00.881Z,16.45
2019-01-05T10:34:34.272Z,22.32
2019-01-05T10:38:13.266Z,27.17
2019-01-05T10:41:41.707Z,20.50
2019-01-05T10:45:37.648Z,16.60
2019-01-05T10:49:24.945Z,17.98
2019-01-05T10:52:52.117Z,26.17
2019-01-05T10:56:16.158Z,17.87
2019-01-05T10:59:55.171Z,32.17
2019-01-05T11:03:31.542Z,14.13
2019-01-05T11:06:49.335Z,19.90
2019-01-05T11:10:36.477Z,15.67
2019-01-05T11:14:22.532Z,28.05
2019-01-05T11:18:04.334Z,23.90
2019-01-05T11:21:44.180Z,13.20
2019-01-05T11:24:58.546Z,17.63
2019-01-05T11:28:29.067Z,18.77
2019-01-05T11:31:47.261Z,20.43
2019-01-05T11:35:21.517Z,17.07
2019-01-05T11:38:50.323Z,10.63
2019-01-05T11:42:34.569Z,19.87
2019-01-05T11:46:16.879Z,12.40
2019-01-05T11:49:59.135Z,16.33
2019-01-05T11:53:36.880Z,11.67
2019-01-05T11:57:11.219Z,12.90
2019-01-05T12:00:31.463Z,17.43
2019-01-05T12:03:58.980Z,23.27
2019-01-05T12:07:28.686Z,9.57
2019-01-05T12:11:48.016Z,24.63
2019-01-05T12:15:23.474Z,10.73
2019-01-05T12:18:58.842Z,18.13
2019-01-05T12:22:24.110Z,12.80
2019-01-05T12:25:47.239Z,18.73
2019-01-05T12:29:15.757Z,12.53
2019-01-05T12:32:56.790Z,9.55
2019-01-05T12:36:23.152Z,19.20
2019-01-05T12:40:19.742Z,16.37
2019-01-05T12:43:54.496Z,15.07
2019-01-05T12:47:26.270Z,14.93
2019-01-05T12:51:07.958Z,7.43
2019-01-05T12:55:05.177Z,17.80
2019-01-05T12:58:38.000Z,16.93
2019-01-05T13:02:12.872Z,16.20
2019-01-05T13:05:59.772Z,18.83
2019-01-05T13:09:34.998Z,9.40
2019-01-05T13:13:30.867Z,11.87
2019-01-05T13:17:02.080Z,10.60
2019-01-05T13:20:31.574Z,23.40
2019-01-05T13:24:03.496Z,13.57
2019-01-05T13:27:41.757Z,18.10
2019-01-05T13:30:58.612Z,8.20
2019-01-05T13:34:28.536Z,20.23
2019-01-05T13:38:19.522Z,18.10
2019-01-05T13:42:05.784Z,13.80
2019-01-05T13:45:44.817Z,11.97
2019-01-05T13:49:31.700Z,24.52
2019-01-05T13:52:50.272Z,10.10
2019-01-05T13:56:02.368Z,19.05
2019-01-05T13:58:51.326Z,8.40
2019-01-05T14:01:43.387Z,15.48
2019-01-05T14:04:39.367Z,18.20
2019-01-05T14:07:27.161Z,18.48
2019-01-05T14:10:28.463Z,12.37
2019-01-05T14:13:13.552Z,11.05
2019-01-05T14:16:04.401Z,13.32
2019-01-05T14:18:53.870Z,18.62
2019-01-05T14:21:45.191Z,13.25
2019-01-05T14:24:49.664Z,17.57
2019-01-05T14:27:44.995Z,6.50
2019-01-05T14:30:36.566Z,13.72
2019-01-05T14:33:27.889Z,10.03
2019-01-05T14:36:15.818Z,5.37
2019-01-05T14:39:04.047Z,10.10
2019-01-05T14:41:53.534Z,16.30
2019-01-05T14:44:56.530Z,10.63
2019-01-05T14:48:01.119Z,33.00
2019-01-05T14:50:53.119Z,18.57
2019-01-05T14:53:43.329Z,21.40
2019-01-05T14:56:47.864Z,8.78
2019-01-05T14:59:33.424Z,10.40
2019-01-05T15:02:21.198Z,12.15
2019-01-05T15:05:22.524Z,14.60
2019-01-05T15:08:13.993Z,10.78
2019-01-05T15:11:14.268Z,12.93
2019-01-05T15:14:02.725Z,7.60
2019-01-05T15:16:51.970Z,18.17
2019-01-05T15:19:33.329Z,9.80
2019-01-05T15:22:32.655Z,7.05
2019-01-05T15:25:21.097Z,9.70
2019-01-05T15:28:19.848Z,12.03
2019-01-05T15:31:07.740Z,12.58
2019-01-05T15:34:03.158Z,9.98
2019-01-05T15:36:52.429Z,16.48
2019-01-05T15:39:53.988Z,8.18
2019-01-05T15:42:52.683Z,13.25
2019-01-05T15:45:40.340Z,16.48
2019-01-05T15:48:47.726Z,10.43
2019-01-05T15:51:35.728Z,16.70
2019-01-05T15:54:31.651Z,15.95
2019-01-05T15:57:22.719Z,12.70
2019-01-05T16:00:12.437Z,5.83
2019-01-05T16:02:59.968Z,12.10
2019-01-05T16:05:51.374Z,12.05
2019-01-05T16:08:47.767Z,7.17
2019-01-05T16:11:45.821Z,14.18
2019-01-05T16:14:33.782Z,19.60
2019-01-05T16:17:38.470Z,24.07
2019-01-05T16:20:21.849Z,14.10
2019-01-05T16:23:10.951Z,14.18
2019-01-05T16:25:58.504Z,14.83
2019-01-05T16:28:46.423Z,19.90
2019-01-05T16:31:35.650Z,8.85
2019-01-05T16:34:40.951Z,12.75
2019-01-05T16:37:30.171Z,8.63
2019-01-05T16:40:25.324Z,11.60
2019-01-05T16:43:21.743Z,18.67
2019-01-05T16:46:26.105Z,16.32
2019-01-05T16:49:13.913Z,10.78
2019-01-05T16:52:12.325Z,6.08
2019-01-05T16:55:05.509Z,19.12
2019-01-05T16:57:53.374Z,9.30
2019-01-05T17:00:45.427Z,16.00
2019-01-05T17:03:39.721Z,14.38
2019-01-05T17:06:28.202Z,11.25
2019-01-05T17:09:26.706Z,10.68
2019-01-05T17:12:14.475Z,11.22
2019-01-05T17:14:58.258Z,5.17
2019-01-05T17:17:50.871Z,13.25
2019-01-05T17:20:55.303Z,9.35
2019-01-05T17:23:42.335Z,11.08
2019-01-05T17:26:40.405Z,9.05
2019-01-05T17:29:33.027Z,10.28
2019-01-05T17:32:22.340Z,72.53
2019-01-05T17:35:11.386Z,5.75
2019-01-05T17:38:01.180Z,8.78
2019-01-05T17:40:49.207Z,9.05
2019-01-05T17:43:56.644Z,7.50
2019-01-05T17:47:04.019Z,4.05
2019-01-05T17:49:52.307Z,5.17
2019-01-05T17:52:40.305Z,8.53
2019-01-05T17:55:49.670Z,6.50
2019-01-05T17:58:56.916Z,10.53
2019-01-05T18:01:47.983Z,5.92
2019-01-05T18:04:55.021Z,5.95
2019-01-05T18:07:44.054Z,5.33
2019-01-05T18:10:36.308Z,1.90
2019-01-05T18:13:33.447Z,7.72
2019-01-05T18:16:21.230Z,3.27
2019-01-05T18:19:16.546Z,7.87
2019-01-05T18:22:13.008Z,5.10
2019-01-05T18:25:00.909Z,3.77
2019-01-05T18:27:48.792Z,8.28
2019-01-05T18:30:38.233Z,6.20
2019-01-05T18:33:27.612Z,4.55
2019-01-05T18:36:16.950Z,2.47
2019-01-05T18:39:04.868Z,3.65
2019-01-05T18:41:53.572Z,4.78
2019-01-05T18:44:41.582Z,4.35
2019-01-05T18:47:29.213Z,4.08
2019-01-05T18:50:17.161Z,2.83
2019-01-05T18:53:05.798Z,9.08
2019-01-05T18:55:58.230Z,7.83
2019-01-05T18:59:00.464Z,11.33
2019-01-05T19:01:48.823Z,5.85
2019-01-05T19:04:56.248Z,10.25
2019-01-05T19:08:03.479Z,27.07
2019-01-05T19:11:05.042Z,10.35
2019-01-05T19:14:00.168Z,12.33
2019-01-05T19:17:01.443Z,8.10
2019-01-05T19:19:49.682Z,9.83
2019-01-05T19:22:39.040Z,4.90
2019-01-05T19:25:31.146Z,5.20
2019-01-05T19:28:15.035Z,6.97
2019-01-05T19:31:09.148Z,5.42
2019-01-05T19:33:57.022Z,11.10
2019-01-05T19:36:46.069Z,9.20
2019-01-05T19:39:34.048Z,17.25
2019-01-05T19:42:26.083Z,14.05
2019-01-05T19:45:34.603Z,8.88
2019-01-05T19:48:22.696Z,8.78
2019-01-05T19:51:21.342Z,14.28
2019-01-05T19:54:13.552Z,11.10
2019-01-05T19:57:13.110Z,11.28
2019-01-05T20:00:02.630Z,13.58
2019-01-05T20:02:50.739Z,9.50
2019-01-05T20:05:40.473Z,5.87
2019-01-05T20:08:41.577Z,11.50
2019-01-05T20:11:30.028Z,10.30
2019-01-05T20:14:31.217Z,6.47
2019-01-05T20:17:29.333Z,6.15
2019-01-05T20:20:21.363Z,6.92
2019-01-05T20:23:09.678Z,6.87
2019-01-05T20:25:59.260Z,10.25
2019-01-05T20:28:48.621Z,12.23
2019-01-05T20:31:38.031Z,5.78
2019-01-05T20:34:36.666Z,7.47
2019-01-05T20:37:28.927Z,6.17
2019-01-05T20:40:36.227Z,22.93
2019-01-05T20:43:24.589Z,30.02
2019-01-05T20:46:21.200Z,28.42
2019-01-05T20:49:13.671Z,23.87
2019-01-05T20:52:01.657Z,33.92
2019-01-05T20:55:00.702Z,10.20
2019-01-05T20:58:02.487Z,9.65
2019-01-05T21:01:09.808Z,11.93
2019-01-05T21:03:53.053Z,9.65
2019-01-05T21:06:37.390Z,8.70
2019-01-05T21:09:32.951Z,9.73
2019-01-05T21:12:20.640Z,7.58
2019-01-05T21:15:17.076Z,16.82
2019-01-05T21:18:13.351Z,14.73
2019-01-05T21:21:01.259Z,16.48
2019-01-05T21:23:50.513Z,9.25
2019-01-05T21:26:45.986Z,8.88
2019-01-05T21:29:35.568Z,10.53
2019-01-05T21:32:27.598Z,8.73
2019-01-05T21:35:15.553Z,6.42
2019-01-05T21:38:05.007Z,16.37
2019-01-05T21:40:54.314Z,10.90
2019-01-05T21:43:46.434Z,10.45
2019-01-05T21:46:34.641Z,22.58
2019-01-05T21:49:22.558Z,10.82
2019-01-05T21:52:10.135Z,9.88
2019-01-05T21:55:05.251Z,12.68
2019-01-05T21:58:00.544Z,13.18
2019-01-05T22:01:05.842Z,10.95
2019-01-05T22:04:04.880Z,11.97
2019-01-05T22:06:57.732Z,23.05
2019-01-05T22:09:58.960Z,12.58
2019-01-05T22:13:06.918Z,18.15
2019-01-05T22:15:54.311Z,18.12
2019-01-05T22:18:42.144Z,15.98
2019-01-05T22:21:30.310Z,18.12
2019-01-05T22:24:32.008Z,19.05
2019-01-05T22:27:21.220Z,24.10
2019-01-05T22:30:09.274Z,21.70
2019-01-05T22:32:57.324Z,15.75
2019-01-05T22:35:49.431Z,20.62
2019-01-05T22:38:32.175Z,18.90
2019-01-05T22:41:26.251Z,22.48
2019-01-05T22:44:27.560Z,14.75
2019-01-05T22:47:25.409Z,24.63
2019-01-05T22:50:26.631Z,27.07
2019-01-05T22:53:12.170Z,32.38
2019-01-05T22:56:16.515Z,30.00
2019-01-05T22:59:07.902Z,30.43
2019-01-05T23:02:00.842Z,23.50
2019-01-05T23:04:56.304Z,35.63
2019-01-05T23:07:44.641Z,24.70
2019-01-05T23:10:47.937Z,24.77
2019-01-05T23:13:44.385Z,28.98
2019-01-05T23:16:28.643Z,22.32
2019-01-05T23:19:17.568Z,20.97
2019-01-05T23:22:07.352Z,32.88
2019-01-05T23:25:01.650Z,29.25
2019-01-05T23:27:53.953Z,29.42
2019-01-05T23:30:40.508Z,23.77
2019-01-05T23:33:32.582Z,26.07
2019-01-05T23:36:20.694Z,27.82
2019-01-05T23:39:08.807Z,27.50
2019-01-05T23:41:57.065Z,37.03
2019-01-05T23:44:42.728Z,38.38
2019-01-05T23:47:47.157Z,49.00
2019-01-05T23:50:35.418Z,105.47
2019-01-05T23:53:31.274Z,109.80
2019-01-05T23:56:41.628Z,121.65
2019-01-05T23:59:29.902Z,121.05
